createdAt,value
2017-05-05T00:00:02.915Z,1007.51
2017-05-05T00:15:03.116Z,1007.47
2017-05-05T00:30:02.797Z,1007.45
2017-05-05T00:45:02.787Z,1007.42
2017-05-05T01:00:02.839Z,1007.37
2017-05-05T01:15:03.343Z,1007.35
2017-05-05T01:30:02.675Z,1007.35
2017-05-05T01:45:02.508Z,1007.36
2017-05-05T02:00:02.945Z,1007.3
2017-05-05T02:15:02.985Z,1007.38
2017-05-05T02:30:02.735Z,1007.3
2017-05-05T02:45:02.842Z,1007.29
2017-05-05T03:00:03.278Z,1007.32
2017-05-05T03:15:02.754Z,1007.32
2017-05-05T03:30:03.054Z,1007.31
2017-05-05T03:45:03.016Z,1007.43
2017-05-05T04:00:03.060Z,1007.45
2017-05-05T04:15:03.301Z,1007.55
2017-05-05T04:30:03.033Z,1007.56
2017-05-05T04:45:02.833Z,1007.61
2017-05-05T05:00:03.361Z,1007.71
2017-05-05T05:15:02.909Z,1007.69
2017-05-05T05:30:02.568Z,1007.66
2017-05-05T05:45:03.104Z,1007.8
2017-05-05T06:00:02.668Z,1007.76
2017-05-05T06:15:02.529Z,1007.88
2017-05-05T06:30:02.506Z,1007.89
2017-05-05T06:45:02.875Z,1007.87
2017-05-05T07:00:03.203Z,1007.96
2017-05-05T07:15:02.842Z,1007.9
2017-05-05T07:30:02.747Z,1008.04
2017-05-05T07:45:02.608Z,1008.18
2017-05-05T08:00:02.591Z,1008.16
2017-05-05T08:15:03.040Z,1008.13
2017-05-05T08:30:03.150Z,1008.04
2017-05-05T08:45:02.513Z,1008.04
2017-05-05T09:00:02.528Z,1008.05
2017-05-05T09:15:02.549Z,1008.09
2017-05-05T09:30:03.339Z,1008.16
2017-05-05T09:45:03.359Z,1008.26
2017-05-05T10:00:02.861Z,1008.21
2017-05-05T10:15:02.915Z,1008.37
2017-05-05T10:30:02.940Z,1008.43
2017-05-05T10:45:03.072Z,1008.6
2017-05-05T11:00:03.071Z,1008.56
2017-05-05T11:15:02.489Z,1008.54
2017-05-05T11:30:03.063Z,1008.63
2017-05-05T11:45:02.514Z,1008.69
2017-05-05T12:00:03.065Z,1008.61
2017-05-05T12:15:03.021Z,1008.69
2017-05-05T12:30:02.736Z,1008.7
2017-05-05T12:45:03.169Z,1008.76
2017-05-05T13:00:03.111Z,1008.71
2017-05-05T13:15:02.777Z,1008.67
2017-05-05T13:30:03.280Z,1008.78
2017-05-05T13:45:02.834Z,1008.69
2017-05-05T14:00:03.301Z,1008.52
2017-05-05T14:15:02.421Z,1008.43
2017-05-05T14:30:03.092Z,1008.44
2017-05-05T14:45:02.583Z,1008.35
2017-05-05T15:00:02.844Z,1008.44
2017-05-05T15:15:02.759Z,1008.3
2017-05-05T15:30:02.943Z,1008.17
2017-05-05T15:45:02.953Z,1008.22
2017-05-05T16:00:03.015Z,1008.24
2017-05-05T16:15:02.837Z,1008.37
2017-05-05T16:30:02.508Z,1008.21
2017-05-05T16:45:03.070Z,1008.22
2017-05-05T17:00:02.558Z,1008.07
2017-05-05T17:15:02.490Z,1008.17
2017-05-05T17:30:03.132Z,1008.17
2017-05-05T17:45:02.896Z,1008.19
2017-05-05T18:00:03.371Z,1008.14
2017-05-05T18:15:02.455Z,1007.97
2017-05-05T18:30:03.162Z,1007.85
2017-05-05T18:45:02.622Z,1008.08
2017-05-05T19:00:02.519Z,1008.21
2017-05-05T19:15:03.237Z,1008.21
2017-05-05T19:30:02.470Z,1008.25
2017-05-05T19:45:02.897Z,1008.22
2017-05-05T20:00:02.377Z,1008.11
2017-05-05T20:15:02.808Z,1008.12
2017-05-05T20:30:03.169Z,1008.18
2017-05-05T20:45:02.780Z,1007.93
2017-05-05T21:00:02.509Z,1007.93
2017-05-05T21:15:02.872Z,1007.85
2017-05-05T21:30:02.817Z,1007.92
2017-05-05T21:45:02.866Z,1007.91
2017-05-05T22:00:02.958Z,1007.87
2017-05-05T22:15:02.723Z,1007.78
2017-05-05T22:30:02.417Z,1007.7
2017-05-05T22:45:03.296Z,1007.74
2017-05-05T23:00:02.646Z,1007.67
2017-05-05T23:15:02.716Z,1007.52
2017-05-05T23:30:02.681Z,1007.42
2017-05-05T23:45:02.611Z,1007.37
